createdAt,value
2018-09-23T00:01:01.906Z,33.1
2018-09-23T00:02:04.348Z,33.2
2018-09-23T00:03:06.790Z,33.3
2018-09-23T00:04:09.236Z,33.2
2018-09-23T00:05:11.667Z,33.3
2018-09-23T00:06:13.838Z,33.2
2018-09-23T00:07:16.277Z,33.3
2018-09-23T00:08:18.714Z,33.2
2018-09-23T00:09:21.139Z,33.2
2018-09-23T00:10:23.569Z,33.3
2018-09-23T00:11:25.733Z,33.1
2018-09-23T00:12:28.189Z,33.2
2018-09-23T00:13:30.327Z,33.3
2018-09-23T00:14:32.760Z,33.2
2018-09-23T00:15:35.194Z,33.3
2018-09-23T00:16:37.619Z,33.4
2018-09-23T00:17:40.046Z,33.3
2018-09-23T00:18:42.202Z,33.1
2018-09-23T00:19:44.647Z,33.2
2018-09-23T00:20:47.072Z,33.2
2018-09-23T00:21:49.507Z,33.3
2018-09-23T00:22:51.947Z,33.4
2018-09-23T00:23:54.377Z,33.3
2018-09-23T00:24:56.815Z,33.3
2018-09-23T00:25:59.249Z,33.3
2018-09-23T00:27:01.676Z,33.3
2018-09-23T00:28:04.108Z,33.4
2018-09-23T00:29:06.538Z,33.3
2018-09-23T00:30:08.986Z,33.4
2018-09-23T00:31:11.405Z,33.3
2018-09-23T00:32:13.871Z,33.3
2018-09-23T00:33:16.028Z,33.3
2018-09-23T00:34:18.468Z,33.2
2018-09-23T00:35:20.894Z,33.4
2018-09-23T00:36:23.067Z,33.2
2018-09-23T00:37:25.513Z,33.5
2018-09-23T00:38:27.936Z,33.2
2018-09-23T00:39:30.381Z,33.2
2018-09-23T00:40:32.805Z,33.3
2018-09-23T00:41:35.224Z,33.2
2018-09-23T00:42:37.665Z,33.4
2018-09-23T00:43:39.807Z,33.3
2018-09-23T00:44:41.969Z,33.4
2018-09-23T00:45:44.394Z,33.3
2018-09-23T00:46:46.831Z,33.5
2018-09-23T00:47:49.258Z,33.4
2018-09-23T00:48:51.702Z,33.4
2018-09-23T00:49:54.149Z,33.4
2018-09-23T00:50:56.293Z,33.3
2018-09-23T00:51:58.725Z,33.4
2018-09-23T00:53:01.159Z,33.4
2018-09-23T00:54:03.586Z,33.3
2018-09-23T00:55:06.019Z,33.3
2018-09-23T00:56:08.445Z,33.4
2018-09-23T00:57:10.893Z,33.4
2018-09-23T00:58:13.327Z,33.4
2018-09-23T00:59:15.757Z,33.4
2018-09-23T01:00:18.186Z,33.4
2018-09-23T01:01:20.628Z,33.5
2018-09-23T01:02:23.057Z,33.5
2018-09-23T01:03:25.501Z,33.3
2018-09-23T01:04:27.943Z,33.5
2018-09-23T01:05:29.826Z,33.4
2018-09-23T01:06:32.267Z,33.4
2018-09-23T01:07:34.704Z,33.5
2018-09-23T01:08:37.137Z,33.4
2018-09-23T01:09:39.561Z,33.4
2018-09-23T01:10:41.722Z,33.5
2018-09-23T01:11:44.153Z,33.4
2018-09-23T01:12:46.585Z,33.4
2018-09-23T01:13:49.057Z,33.4
2018-09-23T01:14:51.496Z,33.5
2018-09-23T01:15:53.926Z,33.4
2018-09-23T01:16:56.351Z,33.5
2018-09-23T01:17:58.516Z,33.5
2018-09-23T01:19:00.953Z,33.5
2018-09-23T01:20:03.389Z,33.5
2018-09-23T01:21:05.810Z,33.4
2018-09-23T01:22:08.246Z,33.4
2018-09-23T01:23:10.678Z,33.4
2018-09-23T01:24:13.107Z,33.4
2018-09-23T01:25:15.546Z,33.4
2018-09-23T01:26:17.991Z,33.5
2018-09-23T01:27:20.419Z,33.5
2018-09-23T01:28:22.856Z,33.5
2018-09-23T01:29:25.288Z,33.5
2018-09-23T01:30:27.712Z,33.4
2018-09-23T01:31:29.584Z,33.4
2018-09-23T01:32:32.018Z,33.5
2018-09-23T01:33:34.447Z,33.5
2018-09-23T01:34:36.883Z,33.5
2018-09-23T01:35:39.361Z,33.4
2018-09-23T01:36:41.537Z,33.4
2018-09-23T01:37:43.968Z,33.5
2018-09-23T01:38:46.397Z,33.5
2018-09-23T01:39:48.839Z,33.4
2018-09-23T01:40:51.260Z,33.4
2018-09-23T01:41:53.716Z,33.6
2018-09-23T01:42:56.148Z,33.5
2018-09-23T01:43:58.577Z,33.4
2018-09-23T01:45:01.018Z,33.5
2018-09-23T01:46:03.445Z,33.5
2018-09-23T01:47:05.877Z,33.5
2018-09-23T01:48:08.025Z,33.5
2018-09-23T01:49:10.466Z,33.5
2018-09-23T01:50:12.902Z,33.4
2018-09-23T01:51:15.343Z,33.5
2018-09-23T01:52:17.480Z,33.5
2018-09-23T01:53:19.658Z,33.4
2018-09-23T01:54:22.095Z,33.4
2018-09-23T01:55:24.528Z,33.4
2018-09-23T01:56:26.957Z,33.5
2018-09-23T01:57:29.390Z,33.5
2018-09-23T01:58:31.833Z,33.5
2018-09-23T01:59:34.272Z,33.5
2018-09-23T02:00:36.148Z,33.5
2018-09-23T02:01:38.591Z,33.5
2018-09-23T02:02:40.746Z,33.5
2018-09-23T02:03:43.193Z,33.5
2018-09-23T02:04:45.362Z,33.4
2018-09-23T02:05:47.795Z,33.5
2018-09-23T02:06:50.236Z,33.5
2018-09-23T02:07:52.667Z,33.5
2018-09-23T02:08:54.540Z,33.6
2018-09-23T02:09:56.698Z,33.5
2018-09-23T02:10:59.137Z,33.5
2018-09-23T02:12:01.572Z,33.5
2018-09-23T02:13:04.006Z,33.5
2018-09-23T02:14:06.448Z,33.6
2018-09-23T02:15:08.877Z,33.4
2018-09-23T02:16:11.303Z,33.5
2018-09-23T02:17:13.463Z,33.5
2018-09-23T02:18:15.887Z,33.6
2018-09-23T02:19:18.316Z,33.6
2018-09-23T02:20:20.745Z,33.5
2018-09-23T02:21:23.177Z,33.5
2018-09-23T02:22:25.609Z,33.5
2018-09-23T02:23:28.048Z,33.5
2018-09-23T02:24:30.468Z,33.5
2018-09-23T02:25:32.601Z,33.4
2018-09-23T02:26:35.033Z,33.5
2018-09-23T02:27:37.458Z,33.6
2018-09-23T02:28:39.881Z,33.4
2018-09-23T02:29:42.314Z,33.5
2018-09-23T02:30:44.747Z,33.4
2018-09-23T02:31:47.184Z,33.4
2018-09-23T02:32:49.620Z,33.5
2018-09-23T02:33:52.048Z,33.5
2018-09-23T02:34:54.477Z,33.5
2018-09-23T02:35:56.909Z,33.5
2018-09-23T02:36:59.344Z,33.5
2018-09-23T02:38:01.785Z,33.5
2018-09-23T02:39:04.221Z,33.4
2018-09-23T02:40:06.726Z,33.5
2018-09-23T02:41:08.606Z,33.5
2018-09-23T02:42:11.038Z,33.5
2018-09-23T02:43:13.476Z,33.5
2018-09-23T02:44:15.919Z,33.5
2018-09-23T02:45:18.344Z,33.5
2018-09-23T02:46:20.495Z,33.5
2018-09-23T02:47:22.655Z,33.5
2018-09-23T02:48:25.107Z,33.6
2018-09-23T02:49:27.536Z,33.5
2018-09-23T02:50:29.963Z,33.5
2018-09-23T02:51:32.106Z,33.6
2018-09-23T02:52:34.539Z,33.5
2018-09-23T02:53:36.993Z,33.5
2018-09-23T02:54:39.425Z,33.5
2018-09-23T02:55:41.856Z,33.4
2018-09-23T02:56:44.010Z,33.6
2018-09-23T02:57:46.439Z,33.5
2018-09-23T02:58:48.603Z,33.6
2018-09-23T02:59:51.037Z,33.5
2018-09-23T03:00:53.477Z,33.5
2018-09-23T03:01:55.921Z,33.4
2018-09-23T03:02:58.347Z,33.5
2018-09-23T03:04:00.774Z,33.5
2018-09-23T03:05:03.246Z,33.5
2018-09-23T03:06:05.387Z,33.4
2018-09-23T03:07:07.823Z,33.4
2018-09-23T03:08:10.262Z,33.4
2018-09-23T03:09:12.425Z,33.4
2018-09-23T03:10:14.857Z,33.3
2018-09-23T03:11:17.276Z,33.3
2018-09-23T03:12:19.439Z,33.4
2018-09-23T03:13:21.867Z,33.3
2018-09-23T03:14:24.294Z,33.3
2018-09-23T03:15:26.727Z,33.3
2018-09-23T03:16:28.865Z,33.2
2018-09-23T03:17:31.290Z,33.2
2018-09-23T03:18:33.449Z,33.1
2018-09-23T03:19:35.874Z,33.3
2018-09-23T03:20:38.296Z,33.2
2018-09-23T03:21:40.736Z,33.2
2018-09-23T03:22:43.173Z,33.1
2018-09-23T03:23:45.625Z,33.1
2018-09-23T03:24:48.065Z,33.2
2018-09-23T03:25:50.215Z,33.1
2018-09-23T03:26:52.645Z,33.1
2018-09-23T03:27:55.102Z,33
2018-09-23T03:28:57.564Z,33.2
2018-09-23T03:29:59.986Z,33.1
2018-09-23T03:31:02.127Z,33
2018-09-23T03:32:04.580Z,33.1
2018-09-23T03:33:07.031Z,33.1
2018-09-23T03:34:09.463Z,33.1
2018-09-23T03:35:11.886Z,33
2018-09-23T03:36:14.313Z,33
2018-09-23T03:37:16.752Z,33
2018-09-23T03:38:19.182Z,33
2018-09-23T03:39:21.628Z,33
2018-09-23T03:40:24.057Z,32.9
2018-09-23T03:41:26.511Z,33
2018-09-23T03:42:28.946Z,33
2018-09-23T03:43:31.379Z,33
2018-09-23T03:44:33.812Z,33
2018-09-23T03:45:36.235Z,33
2018-09-23T03:46:38.678Z,33
2018-09-23T03:47:41.110Z,33
2018-09-23T03:48:43.537Z,32.9
2018-09-23T03:49:45.964Z,33
2018-09-23T03:50:48.404Z,32.8
2018-09-23T03:51:50.838Z,32.9
2018-09-23T03:52:53.275Z,33
2018-09-23T03:53:55.700Z,32.9
2018-09-23T03:54:58.129Z,33
2018-09-23T03:56:00.556Z,33
2018-09-23T03:57:02.721Z,33
2018-09-23T03:58:05.204Z,32.8
2018-09-23T03:59:08.056Z,33
2018-09-23T04:00:10.488Z,33
2018-09-23T04:01:12.920Z,32.9
2018-09-23T04:02:15.346Z,32.9
2018-09-23T04:03:17.785Z,32.9
2018-09-23T04:04:20.226Z,32.9
2018-09-23T04:05:22.657Z,32.9
2018-09-23T04:06:25.086Z,32.9
2018-09-23T04:07:27.547Z,32.8
2018-09-23T04:08:29.986Z,32.8
2018-09-23T04:09:32.417Z,32.9
2018-09-23T04:10:34.848Z,32.8
2018-09-23T04:11:37.278Z,32.8
2018-09-23T04:12:39.732Z,32.8
2018-09-23T04:13:42.180Z,32.9
2018-09-23T04:14:44.332Z,32.9
2018-09-23T04:15:46.774Z,32.9
2018-09-23T04:16:49.208Z,33
2018-09-23T04:17:51.638Z,32.9
2018-09-23T04:18:54.066Z,32.8
2018-09-23T04:19:56.227Z,32.8
2018-09-23T04:20:58.381Z,32.9
2018-09-23T04:22:00.817Z,32.7
2018-09-23T04:23:03.248Z,32.8
2018-09-23T04:24:05.679Z,32.8
2018-09-23T04:25:08.127Z,32.7
2018-09-23T04:26:10.287Z,32.7
2018-09-23T04:27:12.719Z,32.8
2018-09-23T04:28:15.154Z,32.7
2018-09-23T04:29:17.578Z,32.8
2018-09-23T04:30:20.002Z,32.7
2018-09-23T04:31:22.437Z,32.8
2018-09-23T04:32:24.864Z,32.7
2018-09-23T04:33:27.296Z,32.7
2018-09-23T04:34:29.728Z,32.9
2018-09-23T04:35:32.163Z,32.6
2018-09-23T04:36:34.324Z,32.8
2018-09-23T04:37:36.753Z,32.8
2018-09-23T04:38:39.187Z,32.8
2018-09-23T04:39:41.626Z,32.8
2018-09-23T04:40:44.053Z,32.7
2018-09-23T04:41:46.495Z,32.7
2018-09-23T04:42:48.925Z,32.8
2018-09-23T04:43:51.368Z,32.8
2018-09-23T04:44:53.901Z,32.8
2018-09-23T04:45:56.582Z,32.7
2018-09-23T04:46:59.013Z,32.8
2018-09-23T04:48:01.461Z,32.7
2018-09-23T04:49:03.890Z,32.7
2018-09-23T04:50:06.320Z,32.6
2018-09-23T04:51:08.758Z,32.8
2018-09-23T04:52:10.904Z,32.8
2018-09-23T04:53:13.338Z,32.8
2018-09-23T04:54:15.769Z,32.7
2018-09-23T04:55:18.349Z,32.8
2018-09-23T04:56:20.997Z,32.7
2018-09-23T04:57:23.421Z,32.7
2018-09-23T04:58:25.576Z,32.8
2018-09-23T04:59:27.714Z,32.8
2018-09-23T05:00:30.143Z,32.6
2018-09-23T05:01:32.579Z,32.7
2018-09-23T05:02:35.011Z,32.8
2018-09-23T05:03:37.444Z,32.6
2018-09-23T05:04:39.868Z,32.6
2018-09-23T05:05:42.306Z,32.8
2018-09-23T05:06:44.732Z,32.6
2018-09-23T05:07:47.203Z,32.6
2018-09-23T05:08:49.626Z,32.6
2018-09-23T05:09:52.054Z,32.8
2018-09-23T05:10:54.492Z,32.6
2018-09-23T05:11:56.934Z,32.7
2018-09-23T05:12:59.398Z,32.7
2018-09-23T05:14:01.840Z,32.7
2018-09-23T05:15:04.342Z,32.7
2018-09-23T05:16:06.780Z,32.8
2018-09-23T05:17:09.207Z,32.8
2018-09-23T05:18:11.639Z,32.8
2018-09-23T05:19:14.075Z,32.6
2018-09-23T05:20:16.233Z,32.7
2018-09-23T05:21:18.119Z,32.6
2018-09-23T05:22:20.545Z,32.7
2018-09-23T05:23:23.066Z,32.7
2018-09-23T05:24:25.226Z,32.6
2018-09-23T05:25:27.660Z,32.8
2018-09-23T05:26:30.075Z,32.7
2018-09-23T05:27:32.245Z,32.6
2018-09-23T05:28:34.685Z,32.7
2018-09-23T05:29:37.117Z,32.7
2018-09-23T05:30:39.547Z,32.8
2018-09-23T05:31:41.979Z,32.7
2018-09-23T05:32:44.404Z,32.7
2018-09-23T05:33:46.838Z,32.7
2018-09-23T05:34:48.997Z,32.7
2018-09-23T05:35:51.430Z,32.8
2018-09-23T05:36:53.868Z,32.7
2018-09-23T05:37:56.300Z,32.6
2018-09-23T05:38:58.728Z,32.7
2018-09-23T05:40:00.861Z,32.7
2018-09-23T05:41:03.288Z,32.7
2018-09-23T05:42:05.717Z,32.6
2018-09-23T05:43:07.879Z,32.6
2018-09-23T05:44:10.461Z,32.6
2018-09-23T05:45:12.897Z,32.6
2018-09-23T05:46:15.346Z,32.6
2018-09-23T05:47:17.777Z,32.7
2018-09-23T05:48:20.207Z,32.7
2018-09-23T05:49:22.646Z,32.7
2018-09-23T05:50:24.835Z,32.6
2018-09-23T05:51:27.267Z,32.6
2018-09-23T05:52:29.700Z,32.7
2018-09-23T05:53:31.857Z,32.7
2018-09-23T05:54:34.293Z,32.7
2018-09-23T05:55:36.449Z,32.6
2018-09-23T05:56:38.892Z,32.6
2018-09-23T05:57:41.319Z,32.7
2018-09-23T05:58:43.479Z,32.8
2018-09-23T05:59:45.911Z,32.6
2018-09-23T06:00:48.343Z,32.6
2018-09-23T06:01:50.778Z,32.6
2018-09-23T06:02:53.211Z,32.7
2018-09-23T06:03:55.640Z,32.7
2018-09-23T06:04:58.071Z,32.8
2018-09-23T06:06:00.527Z,32.6
2018-09-23T06:07:02.953Z,32.7
2018-09-23T06:08:05.385Z,32.5
2018-09-23T06:09:07.814Z,32.6
2018-09-23T06:10:10.247Z,32.6
2018-09-23T06:11:12.844Z,32.7
2018-09-23T06:12:15.475Z,32.6
2018-09-23T06:13:17.916Z,32.6
2018-09-23T06:14:20.347Z,32.6
2018-09-23T06:15:22.809Z,32.7
2018-09-23T06:16:25.246Z,32.6
2018-09-23T06:17:27.685Z,32.6
2018-09-23T06:18:30.241Z,32.6
2018-09-23T06:19:33.011Z,32.6
2018-09-23T06:20:35.449Z,32.6
2018-09-23T06:21:37.877Z,32.6
2018-09-23T06:22:40.322Z,32.6
2018-09-23T06:23:42.761Z,32.6
2018-09-23T06:24:45.207Z,32.6
2018-09-23T06:25:47.651Z,32.6
2018-09-23T06:26:50.088Z,32.5
2018-09-23T06:27:52.527Z,32.6
2018-09-23T06:28:54.967Z,32.6
2018-09-23T06:29:57.148Z,32.6
2018-09-23T06:30:59.584Z,32.6
2018-09-23T06:32:02.018Z,32.7
2018-09-23T06:33:04.449Z,32.5
2018-09-23T06:34:06.973Z,32.6
2018-09-23T06:35:09.631Z,32.6
2018-09-23T06:36:12.105Z,32.5
2018-09-23T06:37:14.523Z,32.6
2018-09-23T06:38:16.965Z,32.5
2018-09-23T06:39:19.397Z,32.5
2018-09-23T06:40:21.851Z,32.6
2018-09-23T06:41:24.298Z,32.6
2018-09-23T06:42:26.733Z,32.6
2018-09-23T06:43:29.199Z,32.6
2018-09-23T06:44:31.648Z,32.6
2018-09-23T06:45:34.084Z,32.6
2018-09-23T06:46:36.613Z,32.6
2018-09-23T06:47:38.574Z,32.5
2018-09-23T06:48:41.032Z,32.6
2018-09-23T06:49:43.478Z,32.6
2018-09-23T06:50:45.911Z,32.5
2018-09-23T06:51:48.340Z,32.5
2018-09-23T06:52:50.772Z,32.5
2018-09-23T06:53:53.197Z,32.5
2018-09-23T06:54:55.643Z,32.7
2018-09-23T06:55:58.069Z,32.5
2018-09-23T06:57:00.250Z,32.7
2018-09-23T06:58:02.998Z,32.5
2018-09-23T06:59:05.428Z,32.6
2018-09-23T07:00:07.864Z,32.5
2018-09-23T07:01:10.053Z,32.5
2018-09-23T07:02:12.489Z,32.5
2018-09-23T07:03:14.916Z,32.4
2018-09-23T07:04:17.344Z,32.5
2018-09-23T07:05:19.768Z,32.6
2018-09-23T07:06:22.196Z,32.5
2018-09-23T07:07:24.637Z,32.6
2018-09-23T07:08:27.070Z,32.6
2018-09-23T07:09:29.500Z,32.5
2018-09-23T07:10:32.129Z,32.6
2018-09-23T07:11:34.577Z,32.6
2018-09-23T07:12:37.010Z,32.6
2018-09-23T07:13:39.442Z,32.6
2018-09-23T07:14:41.876Z,32.6
2018-09-23T07:15:44.043Z,32.5
2018-09-23T07:16:46.217Z,32.5
2018-09-23T07:17:48.757Z,32.5
2018-09-23T07:18:51.312Z,32.5
2018-09-23T07:19:53.771Z,32.5
2018-09-23T07:20:56.223Z,32.6
2018-09-23T07:21:58.673Z,32.5
2018-09-23T07:23:01.113Z,32.5
2018-09-23T07:24:03.836Z,32.5
2018-09-23T07:25:06.926Z,32.6
2018-09-23T07:26:09.368Z,32.5
2018-09-23T07:27:11.816Z,32.5
2018-09-23T07:28:14.249Z,32.5
2018-09-23T07:29:16.697Z,32.5
2018-09-23T07:30:19.122Z,32.5
2018-09-23T07:31:21.564Z,32.5
2018-09-23T07:32:24.061Z,32.5
2018-09-23T07:33:26.540Z,32.5
2018-09-23T07:34:29.058Z,32.6
2018-09-23T07:35:31.501Z,32.6
2018-09-23T07:36:33.970Z,32.6
2018-09-23T07:37:36.406Z,32.5
2018-09-23T07:38:38.831Z,32.5
2018-09-23T07:39:41.484Z,32.5
2018-09-23T07:40:43.951Z,32.4
2018-09-23T07:41:46.408Z,32.4
2018-09-23T07:42:48.847Z,32.4
2018-09-23T07:43:51.279Z,32.5
2018-09-23T07:44:53.719Z,32.6
2018-09-23T07:45:56.157Z,32.6
2018-09-23T07:46:58.610Z,32.7
2018-09-23T07:48:00.900Z,32.5
2018-09-23T07:49:03.619Z,32.4
2018-09-23T07:50:05.802Z,32.5
2018-09-23T07:51:07.929Z,32.5
2018-09-23T07:52:10.361Z,32.4
2018-09-23T07:53:12.564Z,32.5
2018-09-23T07:54:14.999Z,32.6
2018-09-23T07:55:17.439Z,32.5
2018-09-23T07:56:19.902Z,32.6
2018-09-23T07:57:22.444Z,32.4
2018-09-23T07:58:24.884Z,32.5
2018-09-23T07:59:27.340Z,32.5
2018-09-23T08:00:29.527Z,32.4
2018-09-23T08:01:31.965Z,32.6
2018-09-23T08:02:34.399Z,32.5
2018-09-23T08:03:36.964Z,32.5
2018-09-23T08:04:39.319Z,32.5
2018-09-23T08:05:41.761Z,32.5
2018-09-23T08:06:44.207Z,32.6
2018-09-23T08:07:46.107Z,32.5
2018-09-23T08:08:48.538Z,32.5
2018-09-23T08:09:50.971Z,32.5
2018-09-23T08:10:53.126Z,32.4
2018-09-23T08:11:55.285Z,32.4
2018-09-23T08:12:58.242Z,32.4
2018-09-23T08:14:03.064Z,32.5
2018-09-23T08:15:08.085Z,32.5
2018-09-23T08:16:10.564Z,32.5
2018-09-23T08:17:13.170Z,32.5
2018-09-23T08:18:15.670Z,32.5
2018-09-23T08:19:18.327Z,32.6
2018-09-23T08:20:21.243Z,32.5
2018-09-23T08:21:24.598Z,32.6
2018-09-23T08:22:27.078Z,32.6
2018-09-23T08:23:29.527Z,32.6
2018-09-23T08:24:31.948Z,32.5
2018-09-23T08:25:34.457Z,32.5
2018-09-23T08:26:37.490Z,32.5
2018-09-23T08:27:40.414Z,32.5
2018-09-23T08:28:42.863Z,32.6
2018-09-23T08:29:45.344Z,32.5
2018-09-23T08:30:47.889Z,32.5
2018-09-23T08:31:50.359Z,32.5
2018-09-23T08:32:52.857Z,32.5
2018-09-23T08:33:55.440Z,32.4
2018-09-23T08:34:57.873Z,32.4
2018-09-23T08:36:00.300Z,32.5
2018-09-23T08:37:02.777Z,32.5
2018-09-23T08:38:05.235Z,32.6
2018-09-23T08:39:07.716Z,32.5
2018-09-23T08:40:09.606Z,32.5
2018-09-23T08:41:12.051Z,32.5
2018-09-23T08:42:14.213Z,32.4
2018-09-23T08:43:16.813Z,32.5
2018-09-23T08:44:19.450Z,32.5
2018-09-23T08:45:21.885Z,32.6
2018-09-23T08:46:24.326Z,32.5
2018-09-23T08:47:26.768Z,32.5
2018-09-23T08:48:29.377Z,32.5
2018-09-23T08:49:31.832Z,32.6
2018-09-23T08:50:34.295Z,32.4
2018-09-23T08:51:36.761Z,32.4
2018-09-23T08:52:39.216Z,32.5
2018-09-23T08:53:41.662Z,32.5
2018-09-23T08:54:44.094Z,32.5
2018-09-23T08:55:46.550Z,32.6
2018-09-23T08:56:48.986Z,32.5
2018-09-23T08:57:51.612Z,32.5
2018-09-23T08:58:53.961Z,32.4
2018-09-23T08:59:56.416Z,32.5
2018-09-23T09:00:58.901Z,32.5
2018-09-23T09:02:01.332Z,32.4
2018-09-23T09:03:03.773Z,32.5
2018-09-23T09:04:06.211Z,32.5
2018-09-23T09:05:08.638Z,32.5
2018-09-23T09:06:10.803Z,32.3
2018-09-23T09:07:13.234Z,32.5
2018-09-23T09:08:15.702Z,32.4
2018-09-23T09:09:18.136Z,32.4
2018-09-23T09:10:20.572Z,32.4
2018-09-23T09:11:23.030Z,32.6
2018-09-23T09:12:25.540Z,32.3
2018-09-23T09:13:27.980Z,32.5
2018-09-23T09:14:30.412Z,32.5
2018-09-23T09:15:32.853Z,32.4
2018-09-23T09:16:35.289Z,32.3
2018-09-23T09:17:37.748Z,32.4
2018-09-23T09:18:40.579Z,32.4
2018-09-23T09:19:44.153Z,32.4
2018-09-23T09:20:46.591Z,32.4
2018-09-23T09:21:48.748Z,32.4
2018-09-23T09:22:51.204Z,32.4
2018-09-23T09:23:53.356Z,32.5
2018-09-23T09:24:55.788Z,32.4
2018-09-23T09:25:58.225Z,32.4
2018-09-23T09:27:00.804Z,32.3
2018-09-23T09:28:03.420Z,32.5
2018-09-23T09:29:05.863Z,32.6
2018-09-23T09:30:08.345Z,32.4
2018-09-23T09:31:10.806Z,32.5
2018-09-23T09:32:13.275Z,32.5
2018-09-23T09:33:15.594Z,32.4
2018-09-23T09:34:18.034Z,32.5
2018-09-23T09:35:20.588Z,32.5
2018-09-23T09:36:23.214Z,32.5
2018-09-23T09:37:25.378Z,32.5
2018-09-23T09:38:28.156Z,32.4
2018-09-23T09:39:30.836Z,32.5
2018-09-23T09:40:33.294Z,32.6
2018-09-23T09:41:35.728Z,32.5
2018-09-23T09:42:38.174Z,32.5
2018-09-23T09:43:40.620Z,32.4
2018-09-23T09:44:43.054Z,32.6
2018-09-23T09:45:45.217Z,32.4
2018-09-23T09:46:47.657Z,32.6
2018-09-23T09:47:49.840Z,32.4
2018-09-23T09:48:52.280Z,32.5
2018-09-23T09:49:54.717Z,32.6
2018-09-23T09:50:57.168Z,32.6
2018-09-23T09:51:59.600Z,32.5
2018-09-23T09:53:02.050Z,32.4
2018-09-23T09:54:04.474Z,32.4
2018-09-23T09:55:06.925Z,32.4
2018-09-23T09:56:09.372Z,32.4
2018-09-23T09:57:11.833Z,32.5
2018-09-23T09:58:14.275Z,32.6
2018-09-23T09:59:16.707Z,32.6
2018-09-23T10:00:19.149Z,32.5
2018-09-23T10:01:21.607Z,32.5
2018-09-23T10:02:24.045Z,32.6
2018-09-23T10:03:26.199Z,32.5
2018-09-23T10:04:28.629Z,32.6
2018-09-23T10:05:31.088Z,32.6
2018-09-23T10:06:33.526Z,32.5
2018-09-23T10:07:35.960Z,32.6
2018-09-23T10:08:38.138Z,32.6
2018-09-23T10:09:40.567Z,32.6
2018-09-23T10:10:43.007Z,32.6
2018-09-23T10:11:45.448Z,32.6
2018-09-23T10:12:47.894Z,32.4
2018-09-23T10:13:50.346Z,32.6
2018-09-23T10:14:52.811Z,32.7
2018-09-23T10:15:55.250Z,32.6
2018-09-23T10:16:57.677Z,32.5
2018-09-23T10:17:59.844Z,32.6
2018-09-23T10:19:02.339Z,32.7
2018-09-23T10:20:04.779Z,32.7
2018-09-23T10:21:07.232Z,32.6
2018-09-23T10:22:09.414Z,32.6
2018-09-23T10:23:12.117Z,32.8
2018-09-23T10:24:14.936Z,32.6
2018-09-23T10:25:17.373Z,32.5
2018-09-23T10:26:19.807Z,32.6
2018-09-23T10:27:22.002Z,32.7
2018-09-23T10:28:24.456Z,32.7
2018-09-23T10:29:26.894Z,32.7
2018-09-23T10:30:29.342Z,32.6
2018-09-23T10:31:31.638Z,32.6
2018-09-23T10:32:34.501Z,32.6
2018-09-23T10:33:36.950Z,32.7
2018-09-23T10:34:39.126Z,32.8
2018-09-23T10:35:41.567Z,32.7
2018-09-23T10:36:44.009Z,32.8
2018-09-23T10:37:46.153Z,32.9
2018-09-23T10:38:48.592Z,32.7
2018-09-23T10:39:51.040Z,32.6
2018-09-23T10:40:53.479Z,32.6
2018-09-23T10:41:55.918Z,32.7
2018-09-23T10:42:58.347Z,32.8
2018-09-23T10:44:00.796Z,32.7
2018-09-23T10:45:03.244Z,32.6
2018-09-23T10:46:05.688Z,32.8
2018-09-23T10:47:08.125Z,32.8
2018-09-23T10:48:10.279Z,32.7
2018-09-23T10:49:12.757Z,32.6
2018-09-23T10:50:15.207Z,32.8
2018-09-23T10:51:17.656Z,32.8
2018-09-23T10:52:20.076Z,32.7
2018-09-23T10:53:22.533Z,32.8
2018-09-23T10:54:24.968Z,32.7
2018-09-23T10:55:26.900Z,32.8
2018-09-23T10:56:29.463Z,32.6
2018-09-23T10:57:31.696Z,32.9
2018-09-23T10:58:34.120Z,32.7
2018-09-23T10:59:36.739Z,32.7
2018-09-23T11:00:39.008Z,32.8
2018-09-23T11:01:41.450Z,32.9
2018-09-23T11:02:43.896Z,32.8
2018-09-23T11:03:46.296Z,32.7
2018-09-23T11:04:48.789Z,32.7
2018-09-23T11:05:51.223Z,32.8
2018-09-23T11:06:53.655Z,32.9
2018-09-23T11:07:56.096Z,32.9
2018-09-23T11:08:58.251Z,32.8
2018-09-23T11:10:00.690Z,32.9
2018-09-23T11:11:03.123Z,32.7
2018-09-23T11:12:05.562Z,32.7
2018-09-23T11:13:07.726Z,32.9
2018-09-23T11:14:10.163Z,32.8
2018-09-23T11:15:12.661Z,32.8
2018-09-23T11:16:15.186Z,32.7
2018-09-23T11:17:17.632Z,32.9
2018-09-23T11:18:20.077Z,32.7
2018-09-23T11:19:22.527Z,32.8
2018-09-23T11:20:24.973Z,32.9
2018-09-23T11:21:27.415Z,32.8
2018-09-23T11:22:29.858Z,33
2018-09-23T11:23:32.457Z,33
2018-09-23T11:24:34.997Z,32.7
2018-09-23T11:25:37.189Z,32.7
2018-09-23T11:26:39.617Z,32.9
2018-09-23T11:27:42.053Z,32.9
2018-09-23T11:28:44.513Z,33
2018-09-23T11:29:46.947Z,32.9
2018-09-23T11:30:49.307Z,32.8
2018-09-23T11:31:51.831Z,32.9
2018-09-23T11:32:54.274Z,32.9
2018-09-23T11:33:56.712Z,32.9
2018-09-23T11:34:58.879Z,32.9
2018-09-23T11:36:01.324Z,32.9
2018-09-23T11:37:03.764Z,32.9
2018-09-23T11:38:06.198Z,32.9
2018-09-23T11:39:08.636Z,32.9
2018-09-23T11:40:11.077Z,32.9
2018-09-23T11:41:13.509Z,33
2018-09-23T11:42:15.946Z,33.1
2018-09-23T11:43:18.382Z,32.9
2018-09-23T11:44:20.556Z,32.9
2018-09-23T11:45:23.014Z,32.9
2018-09-23T11:46:25.445Z,32.9
2018-09-23T11:47:27.897Z,32.9
2018-09-23T11:48:30.100Z,32.9
2018-09-23T11:49:32.539Z,33
2018-09-23T11:50:34.711Z,33
2018-09-23T11:51:37.178Z,33
2018-09-23T11:52:39.609Z,33.1
2018-09-23T11:53:41.746Z,32.9
2018-09-23T11:54:44.194Z,33
2018-09-23T11:55:46.630Z,33
2018-09-23T11:56:49.088Z,33.1
2018-09-23T11:57:51.560Z,33
2018-09-23T11:58:53.895Z,33
2018-09-23T11:59:56.477Z,33
2018-09-23T12:00:58.915Z,33.1
2018-09-23T12:02:01.396Z,33
2018-09-23T12:03:03.901Z,33
2018-09-23T12:04:06.373Z,33
2018-09-23T12:05:08.825Z,33.1
2018-09-23T12:06:10.983Z,33
2018-09-23T12:07:13.429Z,33.1
2018-09-23T12:08:15.870Z,33.1
2018-09-23T12:09:18.314Z,33
2018-09-23T12:10:20.778Z,33.1
2018-09-23T12:11:23.397Z,33
2018-09-23T12:12:25.843Z,33.1
2018-09-23T12:13:28.302Z,33.1
2018-09-23T12:14:30.857Z,33.1
2018-09-23T12:15:33.376Z,33.1
2018-09-23T12:16:35.934Z,33.1
2018-09-23T12:17:38.389Z,33.1
2018-09-23T12:18:40.828Z,33.1
2018-09-23T12:19:43.274Z,33.1
2018-09-23T12:20:45.717Z,33.1
2018-09-23T12:21:48.161Z,33.1
2018-09-23T12:22:50.345Z,33.2
2018-09-23T12:23:52.787Z,33.2
2018-09-23T12:24:55.233Z,33.1
2018-09-23T12:25:57.930Z,33.2
2018-09-23T12:27:00.870Z,33.2
2018-09-23T12:28:03.044Z,33.1
2018-09-23T12:29:05.479Z,33.2
2018-09-23T12:30:07.924Z,33.3
2018-09-23T12:31:10.362Z,33.1
2018-09-23T12:32:12.816Z,33.1
2018-09-23T12:33:15.395Z,33.3
2018-09-23T12:34:18.179Z,33.3
2018-09-23T12:35:20.617Z,33.2
2018-09-23T12:36:22.772Z,33.2
2018-09-23T12:37:25.207Z,33.2
2018-09-23T12:38:27.641Z,33.3
2018-09-23T12:39:30.208Z,33.2
2018-09-23T12:40:32.679Z,33.4
2018-09-23T12:41:35.118Z,33.3
2018-09-23T12:42:37.592Z,33.2
2018-09-23T12:43:40.027Z,33.2
2018-09-23T12:44:42.481Z,33.3
2018-09-23T12:45:44.919Z,33.3
2018-09-23T12:46:47.463Z,33.4
2018-09-23T12:47:49.669Z,33.4
2018-09-23T12:48:52.106Z,33.4
2018-09-23T12:49:54.539Z,33.3
2018-09-23T12:50:56.970Z,33.3
2018-09-23T12:51:59.168Z,33.4
2018-09-23T12:53:01.603Z,33.4
2018-09-23T12:54:04.031Z,33.3
2018-09-23T12:55:06.460Z,33.4
2018-09-23T12:56:08.924Z,33.2
2018-09-23T12:57:11.353Z,33.2
2018-09-23T12:58:13.785Z,33.3
2018-09-23T12:59:16.244Z,33.2
2018-09-23T13:00:18.446Z,33.1
2018-09-23T13:01:20.875Z,33.1
2018-09-23T13:02:23.410Z,33.1
2018-09-23T13:03:25.964Z,33.1
2018-09-23T13:04:28.407Z,33
2018-09-23T13:05:30.558Z,33.2
2018-09-23T13:06:33.035Z,33
2018-09-23T13:07:35.471Z,33.1
2018-09-23T13:08:37.648Z,33.1
2018-09-23T13:09:40.080Z,33.1
2018-09-23T13:10:42.516Z,33
2018-09-23T13:11:44.959Z,33
2018-09-23T13:12:47.404Z,33
2018-09-23T13:13:49.839Z,33.1
2018-09-23T13:14:52.305Z,33.2
2018-09-23T13:15:54.763Z,33.1
2018-09-23T13:16:57.202Z,33.1
2018-09-23T13:17:59.765Z,33
2018-09-23T13:19:02.664Z,33
2018-09-23T13:20:05.101Z,33.1
2018-09-23T13:21:07.526Z,33.1
2018-09-23T13:22:10.035Z,33
2018-09-23T13:23:12.712Z,33.2
2018-09-23T13:24:15.146Z,33.1
2018-09-23T13:25:17.582Z,33.1
2018-09-23T13:26:20.039Z,33.1
2018-09-23T13:27:22.489Z,33.1
2018-09-23T13:28:24.666Z,33.1
2018-09-23T13:29:27.102Z,33
2018-09-23T13:30:29.541Z,33.1
2018-09-23T13:31:32.004Z,33
2018-09-23T13:32:34.434Z,33.1
2018-09-23T13:33:36.919Z,33.1
2018-09-23T13:34:39.534Z,33.1
2018-09-23T13:35:42.057Z,33
2018-09-23T13:36:44.252Z,33
2018-09-23T13:37:46.689Z,33
2018-09-23T13:38:49.130Z,33
2018-09-23T13:39:51.562Z,33
2018-09-23T13:40:54.002Z,33.1
2018-09-23T13:41:56.451Z,33
2018-09-23T13:42:58.885Z,33.1
2018-09-23T13:44:01.055Z,33.1
2018-09-23T13:45:03.517Z,33.1
2018-09-23T13:46:05.956Z,33
2018-09-23T13:47:08.412Z,33.1
2018-09-23T13:48:10.571Z,33.1
2018-09-23T13:49:13.007Z,33.1
2018-09-23T13:50:15.447Z,33
2018-09-23T13:51:17.617Z,33
2018-09-23T13:52:19.759Z,33
2018-09-23T13:53:22.216Z,33
2018-09-23T13:54:24.846Z,33
2018-09-23T13:55:27.598Z,33